Time;durP1;ratioP1;P1;durP2;ratioP2;P2;SDS_P1;SDS_P2;PMS_P1;PMS_P2;Temp;Humidity;BMP_temperature;BMP_pressure;BME280_temperature;BME280_humidity;BME280_pressure;Samples;Min_cycle;Max_cycle;Signal;HPM_P1;HPM_P2
2023/03/15 00:01:28;;;;;;;20.08;1.70;;;;;;;;;;5026141;28;20511;-78
2023/03/15 00:03:55;;;;;;;12.63;1.90;;;;;;;;;;5058993;28;20061;-77
2023/03/15 00:06:22;;;;;;;20.17;2.08;;;;;;;;;;5026652;28;20076;-76
2023/03/15 00:08:50;;;;;;;12.43;1.63;;;;;;;;;;5024565;28;20491;-76
2023/03/15 00:11:17;;;;;;;16.75;1.80;;;;;;;;;;5024318;28;20053;-77
2023/03/15 00:13:45;;;;;;;18.00;2.08;;;;;;;;;;5026317;28;20041;-78
2023/03/15 00:16:16;;;;;;;15.10;2.22;;;;;;;;;;5025740;28;20049;-77
2023/03/15 00:18:45;;;;;;;9.85;1.70;;;;;;;;;;5058071;28;21202;-77
2023/03/15 00:21:14;;;;;;;8.95;1.38;;;;;;;;;;5026776;28;20540;-78
2023/03/15 00:23:41;;;;;;;17.83;1.92;;;;;;;;;;5057858;28;20065;-78
2023/03/15 00:26:07;;;;;;;18.15;2.60;;;;;;;;;;5025561;28;20117;-78
2023/03/15 00:28:33;;;;;;;14.73;2.05;;;;;;;;;;5025602;28;20048;-78
2023/03/15 00:31:08;;;;;;;12.63;1.95;;;;;;;;;;5057946;28;20107;-77
2023/03/15 00:33:35;;;;;;;10.60;1.92;;;;;;;;;;5059516;28;20046;-78
2023/03/15 00:36:04;;;;;;;8.45;1.77;;;;;;;;;;5025655;28;20068;-77
2023/03/15 00:38:30;;;;;;;12.48;1.95;;;;;;;;;;5024344;28;20045;-77
2023/03/15 00:40:57;;;;;;;18.85;2.28;;;;;;;;;;5024654;28;20124;-78
2023/03/15 00:43:24;;;;;;;17.27;1.73;;;;;;;;;;5024847;28;20046;-77
2023/03/15 00:45:50;;;;;;;14.73;1.77;;;;;;;;;;5024577;28;20048;-78
2023/03/15 00:48:18;;;;;;;15.55;1.80;;;;;;;;;;5025747;28;20057;-78
2023/03/15 00:50:44;;;;;;;16.40;1.90;;;;;;;;;;5029835;28;20082;-78
2023/03/15 00:53:12;;;;;;;15.60;2.28;;;;;;;;;;5031946;28;20125;-77
2023/03/15 00:55:38;;;;;;;14.55;2.00;;;;;;;;;;5024213;28;20390;-77
2023/03/15 00:58:09;;;;;;;9.52;1.52;;;;;;;;;;5027260;28;20480;-78
2023/03/15 01:00:37;;;;;;;11.55;2.05;;;;;;;;;;5027955;28;20072;-77
2023/03/15 01:03:08;;;;;;;8.57;1.63;;;;;;;;;;5029262;28;20045;-77
2023/03/15 01:05:34;;;;;;;16.90;1.73;;;;;;;;;;5030449;28;20054;-78
2023/03/15 01:08:01;;;;;;;15.52;1.63;;;;;;;;;;5027828;28;20049;-77
2023/03/15 01:10:29;;;;;;;13.10;1.40;;;;;;;;;;5027880;28;20125;-78
2023/03/15 01:12:55;;;;;;;15.90;1.48;;;;;;;;;;5031394;28;20525;-78
2023/03/15 01:15:22;;;;;;;13.52;1.70;;;;;;;;;;5030595;28;20045;-78
2023/03/15 01:17:48;;;;;;;11.90;1.48;;;;;;;;;;5013003;28;20140;-77
2023/03/15 01:20:15;;;;;;;9.05;1.35;;;;;;;;;;5030731;28;20474;-77
2023/03/15 01:22:42;;;;;;;13.73;2.05;;;;;;;;;;5028856;28;20064;-78
2023/03/15 01:25:09;;;;;;;13.25;1.90;;;;;;;;;;5028056;28;20117;-80
2023/03/15 01:27:36;;;;;;;9.68;1.60;;;;;;;;;;5029630;28;20041;-77
2023/03/15 01:30:03;;;;;;;19.80;2.40;;;;;;;;;;5026548;28;20053;-78
2023/03/15 01:32:31;;;;;;;9.52;1.92;;;;;;;;;;5027423;28;20045;-77
2023/03/15 01:34:58;;;;;;;19.73;1.80;;;;;;;;;;5029849;28;20127;-78
2023/03/15 01:37:25;;;;;;;15.02;1.83;;;;;;;;;;5026643;28;20291;-78
2023/03/15 01:39:52;;;;;;;15.15;1.98;;;;;;;;;;5025510;28;20061;-78
2023/03/15 01:42:19;;;;;;;16.23;2.10;;;;;;;;;;5027157;28;20395;-77
2023/03/15 01:44:49;;;;;;;16.98;2.22;;;;;;;;;;5026274;28;20536;-78
2023/03/15 01:47:16;;;;;;;16.92;1.95;;;;;;;;;;5026828;28;20046;-78
2023/03/15 01:49:45;;;;;;;14.68;1.52;;;;;;;;;;5027024;28;20057;-78
2023/03/15 01:52:14;;;;;;;15.82;1.70;;;;;;;;;;5026833;28;20139;-78
2023/03/15 01:54:51;;;;;;;7.80;1.75;;;;;;;;;;5059250;28;20137;-78
2023/03/15 01:57:25;;;;;;;16.63;2.05;;;;;;;;;;5027812;28;20478;-78
2023/03/15 02:00:00;;;;;;;14.18;1.65;;;;;;;;;;5026948;28;20072;-78
2023/03/15 02:02:45;;;;;;;10.40;1.63;;;;;;;;;;5030451;28;20057;-78
2023/03/15 02:05:19;;;;;;;8.60;1.27;;;;;;;;;;5061320;28;20525;-78
2023/03/15 02:07:49;;;;;;;9.02;1.50;;;;;;;;;;5030778;28;20037;-78
2023/03/15 02:10:39;;;;;;;7.47;1.45;;;;;;;;;;5027767;28;20227;-78
2023/03/15 02:13:06;;;;;;;9.77;1.35;;;;;;;;;;5009637;28;20041;-78
2023/03/15 02:15:33;;;;;;;11.95;1.52;;;;;;;;;;5026357;28;20080;-78
2023/03/15 02:18:03;;;;;;;12.38;1.30;;;;;;;;;;5026374;28;20037;-78
2023/03/15 02:20:34;;;;;;;8.80;1.05;;;;;;;;;;5026893;28;20034;-78
2023/03/15 02:23:01;;;;;;;13.20;1.50;;;;;;;;;;5026822;28;20121;-78
2023/03/15 02:25:31;;;;;;;12.77;1.52;;;;;;;;;;5026147;28;20049;-78
2023/03/15 02:27:58;;;;;;;8.50;1.30;;;;;;;;;;5025431;28;20430;-77
2023/03/15 02:30:24;;;;;;;10.57;1.30;;;;;;;;;;5025884;28;20057;-78
2023/03/15 02:32:51;;;;;;;12.35;1.83;;;;;;;;;;5041196;28;20088;-78
2023/03/15 02:35:26;;;;;;;9.27;1.40;;;;;;;;;;5008241;28;20144;-78
2023/03/15 02:37:52;;;;;;;13.18;1.40;;;;;;;;;;5023555;28;20061;-78
2023/03/15 02:40:20;;;;;;;16.92;1.60;;;;;;;;;;5023928;28;20048;-78
2023/03/15 02:42:48;;;;;;;13.35;1.60;;;;;;;;;;5040008;28;20530;-79
2023/03/15 02:45:15;;;;;;;14.25;1.67;;;;;;;;;;5029856;28;20041;-78
2023/03/15 02:47:43;;;;;;;13.55;1.38;;;;;;;;;;5010946;28;20034;-79
2023/03/15 02:50:10;;;;;;;13.85;1.70;;;;;;;;;;5011007;28;20045;-77
2023/03/15 02:52:36;;;;;;;17.77;1.80;;;;;;;;;;5019794;28;20383;-79
2023/03/15 02:55:03;;;;;;;14.55;1.73;;;;;;;;;;5024014;28;20156;-80
2023/03/15 02:57:30;;;;;;;14.93;1.92;;;;;;;;;;5059748;28;20103;-78
2023/03/15 02:59:58;;;;;;;15.50;1.48;;;;;;;;;;5025217;28;20426;-78
2023/03/15 03:02:25;;;;;;;7.30;1.27;;;;;;;;;;5027291;28;20071;-79
2023/03/15 03:04:52;;;;;;;13.05;1.75;;;;;;;;;;5011102;28;20452;-78
2023/03/15 03:07:18;;;;;;;9.25;1.58;;;;;;;;;;5028028;28;20068;-77
2023/03/15 03:09:49;;;;;;;10.82;2.03;;;;;;;;;;5026744;28;20329;-78
2023/03/15 03:12:19;;;;;;;6.35;1.45;;;;;;;;;;5059651;28;20098;-79
2023/03/15 03:14:46;;;;;;;16.23;1.98;;;;;;;;;;5045534;28;20049;-77
2023/03/15 03:17:16;;;;;;;14.32;2.28;;;;;;;;;;5026033;28;20041;-80
2023/03/15 03:19:43;;;;;;;20.25;1.70;;;;;;;;;;5025761;28;20053;-77
2023/03/15 03:22:12;;;;;;;19.00;1.95;;;;;;;;;;5060367;28;20037;-77
2023/03/15 03:24:44;;;;;;;11.23;1.63;;;;;;;;;;5025610;28;20092;-77
2023/03/15 03:27:16;;;;;;;14.02;1.60;;;;;;;;;;5058903;28;20072;-77
2023/03/15 03:29:44;;;;;;;11.90;1.25;;;;;;;;;;5026021;28;20052;-79
2023/03/15 03:32:11;;;;;;;14.80;1.48;;;;;;;;;;5026787;28;20041;-79
2023/03/15 03:34:38;;;;;;;11.00;1.70;;;;;;;;;;5025828;28;20033;-79
2023/03/15 03:37:05;;;;;;;7.60;1.45;;;;;;;;;;5025752;28;20041;-76
2023/03/15 03:39:48;;;;;;;12.32;1.70;;;;;;;;;;5024911;28;20061;-77
2023/03/15 03:42:15;;;;;;;16.50;1.90;;;;;;;;;;5025417;28;20206;-76
2023/03/15 03:44:41;;;;;;;14.25;1.63;;;;;;;;;;5027153;28;20037;-79
2023/03/15 03:47:08;;;;;;;15.65;1.60;;;;;;;;;;5025050;28;20057;-78
2023/03/15 03:49:34;;;;;;;16.75;1.45;;;;;;;;;;5025733;28;20500;-78
2023/03/15 03:52:02;;;;;;;12.50;1.67;;;;;;;;;;5025380;28;20049;-77
2023/03/15 03:54:30;;;;;;;11.43;1.38;;;;;;;;;;5018978;28;20068;-78
2023/03/15 03:56:57;;;;;;;9.82;1.30;;;;;;;;;;5024862;28;20060;-77
2023/03/15 03:59:28;;;;;;;11.90;1.80;;;;;;;;;;5042723;28;20096;-77
2023/03/15 04:02:01;;;;;;;7.43;1.45;;;;;;;;;;5025195;28;20148;-78
2023/03/15 04:04:28;;;;;;;14.45;2.03;;;;;;;;;;5024565;28;20099;-78
2023/03/15 04:06:55;;;;;;;10.13;1.88;;;;;;;;;;5024607;28;20051;-80
2023/03/15 04:09:27;;;;;;;13.95;1.55;;;;;;;;;;5024888;28;20049;-79
2023/03/15 04:11:53;;;;;;;12.43;1.50;;;;;;;;;;5025805;28;20049;-77
2023/03/15 04:14:20;;;;;;;17.10;1.75;;;;;;;;;;5025536;28;20417;-77
2023/03/15 04:16:48;;;;;;;9.30;1.40;;;;;;;;;;5025059;28;20103;-76
2023/03/15 04:19:16;;;;;;;12.48;1.83;;;;;;;;;;5028024;28;20065;-78
2023/03/15 04:21:46;;;;;;;10.30;1.55;;;;;;;;;;5027493;28;20100;-77
2023/03/15 04:24:39;;;;;;;13.10;1.48;;;;;;;;;;5002697;28;20046;-77
2023/03/15 04:27:18;;;;;;;18.70;1.60;;;;;;;;;;4984471;28;20404;-77
2023/03/15 04:30:04;;;;;;;7.75;1.05;;;;;;;;;;5037418;28;20292;-78
2023/03/15 04:32:41;;;;;;;11.23;1.30;;;;;;;;;;5011823;28;20285;-77
2023/03/15 04:35:34;;;;;;;12.70;1.25;;;;;;;;;;5007793;28;20045;-78
2023/03/15 04:38:39;;;;;;;10.68;1.58;;;;;;;;;;4959484;28;20057;-78
2023/03/15 04:41:09;;;;;;;13.98;1.42;;;;;;;;;;4967445;28;20668;-78
2023/03/15 04:43:46;;;;;;;9.55;1.38;;;;;;;;;;4995253;28;20406;-78
2023/03/15 04:46:36;;;;;;;9.10;1.75;;;;;;;;;;5025320;28;20175;-77
2023/03/15 04:49:22;;;;;;;8.43;1.30;;;;;;;;;;5012100;28;20517;-78
2023/03/15 04:52:03;;;;;;;12.60;1.90;;;;;;;;;;5019910;28;20060;-79
2023/03/15 04:54:29;;;;;;;11.95;1.55;;;;;;;;;;5019024;28;20041;-80
2023/03/15 04:57:24;;;;;;;14.52;1.38;;;;;;;;;;5034529;28;20038;-79
2023/03/15 04:59:50;;;;;;;10.73;1.50;;;;;;;;;;5034156;28;20382;-78
2023/03/15 05:02:43;;;;;;;11.30;1.52;;;;;;;;;;5007434;28;20295;-79
2023/03/15 05:05:17;;;;;;;10.75;1.25;;;;;;;;;;5031186;28;20041;-79
2023/03/15 05:07:55;;;;;;;12.88;1.70;;;;;;;;;;5029452;28;20455;-77
2023/03/15 05:10:42;;;;;;;10.02;1.45;;;;;;;;;;5029340;28;20046;-79
2023/03/15 05:13:25;;;;;;;11.02;1.95;;;;;;;;;;5035119;28;20635;-77
2023/03/15 05:16:03;;;;;;;7.55;1.10;;;;;;;;;;5007876;28;20454;-77
2023/03/15 05:18:47;;;;;;;10.88;1.48;;;;;;;;;;5009771;28;20057;-78
2023/03/15 05:21:34;;;;;;;11.40;1.50;;;;;;;;;;5014602;28;20060;-79
2023/03/15 05:24:09;;;;;;;13.07;1.88;;;;;;;;;;5024904;28;20038;-78
2023/03/15 05:26:48;;;;;;;11.43;1.55;;;;;;;;;;5011581;28;20042;-79
2023/03/15 05:29:41;;;;;;;12.90;1.67;;;;;;;;;;5008652;28;20128;-81
2023/03/15 05:32:38;;;;;;;7.13;1.10;;;;;;;;;;5034311;28;20062;-79
2023/03/15 05:35:25;;;;;;;9.88;1.48;;;;;;;;;;5062712;28;20284;-79
2023/03/15 05:38:25;;;;;;;15.85;1.70;;;;;;;;;;4989180;28;20038;-79
2023/03/15 05:41:16;;;;;;;9.75;1.38;;;;;;;;;;5023877;28;20046;-80
2023/03/15 05:43:54;;;;;;;9.20;1.30;;;;;;;;;;5020561;28;20036;-79
2023/03/15 05:46:58;;;;;;;11.90;1.45;;;;;;;;;;5032736;28;20045;-78
2023/03/15 05:49:52;;;;;;;12.25;1.25;;;;;;;;;;5012343;28;20379;-79
2023/03/15 05:52:31;;;;;;;12.82;1.92;;;;;;;;;;5024575;28;20053;-78
2023/03/15 05:55:10;;;;;;;12.85;1.20;;;;;;;;;;5006554;28;20044;-79
2023/03/15 05:57:49;;;;;;;12.73;1.77;;;;;;;;;;5032104;28;20069;-80
2023/03/15 06:00:55;;;;;;;13.73;1.35;;;;;;;;;;5005307;28;20070;-79
2023/03/15 06:03:41;;;;;;;15.77;1.45;;;;;;;;;;5002353;28;20057;-80
2023/03/15 06:06:16;;;;;;;12.00;1.45;;;;;;;;;;5017417;28;20038;-80
2023/03/15 06:08:43;;;;;;;18.25;1.40;;;;;;;;;;5019723;28;20503;-80
2023/03/15 06:11:10;;;;;;;12.80;1.35;;;;;;;;;;5019144;28;20133;-79
2023/03/15 06:13:37;;;;;;;15.70;1.35;;;;;;;;;;5015876;28;20108;-78
2023/03/15 06:16:10;;;;;;;19.50;1.60;;;;;;;;;;5010020;28;20033;-78
2023/03/15 06:18:41;;;;;;;12.85;1.55;;;;;;;;;;5013105;28;20046;-78
2023/03/15 06:21:08;;;;;;;7.75;1.45;;;;;;;;;;5019948;28;20050;-81
2023/03/15 06:23:35;;;;;;;12.88;1.80;;;;;;;;;;5022059;28;20120;-79
2023/03/15 06:26:02;;;;;;;7.80;1.25;;;;;;;;;;5027411;28;20042;-81
2023/03/15 06:28:30;;;;;;;11.85;1.60;;;;;;;;;;5027002;28;20118;-80
2023/03/15 06:31:07;;;;;;;10.88;1.80;;;;;;;;;;5034400;28;20049;-81
2023/03/15 06:33:38;;;;;;;10.07;1.35;;;;;;;;;;5024894;28;20045;-81
2023/03/15 06:36:08;;;;;;;18.88;1.63;;;;;;;;;;5067189;28;20045;-77
2023/03/15 06:38:35;;;;;;;13.43;1.55;;;;;;;;;;5018895;28;20057;-78
2023/03/15 06:41:03;;;;;;;16.23;1.60;;;;;;;;;;5031608;28;20053;-80
2023/03/15 06:43:33;;;;;;;11.30;1.85;;;;;;;;;;5034464;28;20037;-81
2023/03/15 06:46:00;;;;;;;13.75;1.70;;;;;;;;;;5029667;28;20045;-82
2023/03/15 06:48:28;;;;;;;13.25;1.55;;;;;;;;;;5037430;28;20040;-79
2023/03/15 06:50:56;;;;;;;16.13;1.52;;;;;;;;;;5035594;28;20061;-80
2023/03/15 06:53:23;;;;;;;12.48;2.38;;;;;;;;;;5042595;28;20056;-82
2023/03/15 06:55:51;;;;;;;7.20;1.25;;;;;;;;;;5080942;28;20053;-80
2023/03/15 06:58:17;;;;;;;11.27;0.98;;;;;;;;;;5058177;28;20045;-79
2023/03/15 07:00:44;;;;;;;15.88;1.58;;;;;;;;;;5063138;28;20033;-81
2023/03/15 07:03:10;;;;;;;9.07;1.42;;;;;;;;;;5026725;28;20060;-78
2023/03/15 07:05:37;;;;;;;11.98;1.50;;;;;;;;;;5027168;28;20042;-78
2023/03/15 07:08:07;;;;;;;10.40;1.40;;;;;;;;;;5030366;28;20049;-81
2023/03/15 07:10:35;;;;;;;11.75;1.40;;;;;;;;;;5025979;28;20141;-80
2023/03/15 07:13:03;;;;;;;6.90;1.17;;;;;;;;;;5031932;28;20160;-82
2023/03/15 07:15:29;;;;;;;9.20;1.33;;;;;;;;;;5031142;28;20049;-82
2023/03/15 07:17:56;;;;;;;8.18;1.30;;;;;;;;;;5037844;28;20106;-80
2023/03/15 07:20:23;;;;;;;13.43;1.23;;;;;;;;;;5026551;28;20590;-77
2023/03/15 07:22:49;;;;;;;10.75;1.65;;;;;;;;;;5013775;28;20056;-79
2023/03/15 07:25:22;;;;;;;8.68;1.20;;;;;;;;;;5020390;28;20046;-78
2023/03/15 07:27:49;;;;;;;12.13;2.10;;;;;;;;;;5014890;28;20064;-78
2023/03/15 07:30:16;;;;;;;10.75;1.58;;;;;;;;;;5021663;28;20049;-79
2023/03/15 07:32:43;;;;;;;9.68;1.73;;;;;;;;;;5025377;28;20053;-78
2023/03/15 07:35:10;;;;;;;9.93;1.40;;;;;;;;;;5023611;28;20104;-79
2023/03/15 07:37:39;;;;;;;9.77;1.83;;;;;;;;;;5026931;28;20056;-78
2023/03/15 07:40:11;;;;;;;8.88;1.38;;;;;;;;;;5019546;28;20133;-78
2023/03/15 07:42:41;;;;;;;7.97;1.50;;;;;;;;;;5025025;28;20040;-76
2023/03/15 07:45:08;;;;;;;11.73;1.50;;;;;;;;;;5019365;28;20500;-79
2023/03/15 07:47:35;;;;;;;15.77;1.85;;;;;;;;;;5023169;28;20110;-77
2023/03/15 07:50:02;;;;;;;12.13;1.73;;;;;;;;;;5021345;28;20061;-78
2023/03/15 07:52:29;;;;;;;13.48;1.58;;;;;;;;;;5022643;28;20081;-79
2023/03/15 07:54:55;;;;;;;8.07;1.25;;;;;;;;;;5013302;28;20045;-79
2023/03/15 07:57:22;;;;;;;9.27;1.17;;;;;;;;;;5028113;28;20045;-79
2023/03/15 07:59:49;;;;;;;9.75;1.48;;;;;;;;;;5032276;28;20832;-79
2023/03/15 08:02:16;;;;;;;11.82;1.80;;;;;;;;;;5037688;28;20499;-79
2023/03/15 08:04:43;;;;;;;9.27;1.65;;;;;;;;;;5019091;28;20103;-78
2023/03/15 08:07:10;;;;;;;7.00;1.52;;;;;;;;;;5007932;28;20057;-77
2023/03/15 08:09:36;;;;;;;11.30;1.88;;;;;;;;;;5011820;28;20042;-79
2023/03/15 08:12:03;;;;;;;14.75;2.13;;;;;;;;;;5015666;28;20065;-79
2023/03/15 08:14:30;;;;;;;7.55;1.50;;;;;;;;;;5015593;28;20043;-78
2023/03/15 08:16:57;;;;;;;13.43;1.60;;;;;;;;;;5016508;28;20049;-80
2023/03/15 08:19:23;;;;;;;16.05;1.83;;;;;;;;;;5016768;28;20406;-78
2023/03/15 08:21:52;;;;;;;11.30;1.58;;;;;;;;;;5021716;28;20060;-78
2023/03/15 08:24:20;;;;;;;16.30;2.25;;;;;;;;;;5026037;28;20053;-79
2023/03/15 08:26:47;;;;;;;20.38;2.28;;;;;;;;;;5018024;28;20876;-78
2023/03/15 08:29:14;;;;;;;9.30;1.42;;;;;;;;;;5021926;28;20042;-79
2023/03/15 08:31:41;;;;;;;12.82;2.00;;;;;;;;;;5027485;28;20396;-78
2023/03/15 08:34:07;;;;;;;15.88;1.73;;;;;;;;;;5025202;28;20061;-80
2023/03/15 08:36:35;;;;;;;9.23;1.48;;;;;;;;;;5029027;28;21181;-80
2023/03/15 08:39:04;;;;;;;11.13;2.25;;;;;;;;;;5038748;28;20049;-79
2023/03/15 08:41:33;;;;;;;7.75;1.50;;;;;;;;;;5026000;28;20049;-77
2023/03/15 08:44:00;;;;;;;12.63;1.70;;;;;;;;;;5028108;28;20502;-79
2023/03/15 08:46:26;;;;;;;13.70;1.88;;;;;;;;;;5013079;28;20046;-77
2023/03/15 08:48:53;;;;;;;15.55;2.13;;;;;;;;;;5028075;28;20177;-78
2023/03/15 08:51:20;;;;;;;20.05;2.08;;;;;;;;;;5037341;28;20056;-78
2023/03/15 08:53:48;;;;;;;13.38;2.38;;;;;;;;;;5027597;28;20057;-78
2023/03/15 08:56:14;;;;;;;15.15;2.13;;;;;;;;;;5027618;28;20076;-79
2023/03/15 08:58:41;;;;;;;17.10;2.00;;;;;;;;;;5014676;28;20048;-78
2023/03/15 09:01:10;;;;;;;12.63;1.80;;;;;;;;;;5009744;28;20076;-78
2023/03/15 09:03:37;;;;;;;12.55;2.33;;;;;;;;;;4996777;28;20077;-79
2023/03/15 09:06:04;;;;;;;9.90;1.98;;;;;;;;;;5009354;28;20042;-79
2023/03/15 09:08:32;;;;;;;8.07;2.20;;;;;;;;;;5012348;28;20058;-80
2023/03/15 09:11:00;;;;;;;7.20;2.00;;;;;;;;;;5022115;28;20075;-80
2023/03/15 09:13:27;;;;;;;11.93;2.13;;;;;;;;;;5028476;28;20080;-82
2023/03/15 09:15:54;;;;;;;8.23;2.03;;;;;;;;;;5016946;28;20144;-80
2023/03/15 09:18:21;;;;;;;13.82;2.50;;;;;;;;;;5020140;28;20041;-79
2023/03/15 09:20:48;;;;;;;11.98;2.45;;;;;;;;;;5018074;28;20138;-80
2023/03/15 09:23:15;;;;;;;10.00;1.92;;;;;;;;;;5024332;28;20054;-79
2023/03/15 09:25:42;;;;;;;9.98;2.15;;;;;;;;;;5015650;28;20132;-79
2023/03/15 09:28:10;;;;;;;9.18;2.35;;;;;;;;;;5017228;28;20117;-80
2023/03/15 09:30:37;;;;;;;10.38;1.98;;;;;;;;;;5017179;28;20125;-77
2023/03/15 09:33:04;;;;;;;10.57;2.33;;;;;;;;;;5024208;28;20053;-78
2023/03/15 09:35:31;;;;;;;7.13;2.33;;;;;;;;;;5021811;28;20046;-80
2023/03/15 09:37:59;;;;;;;14.25;2.85;;;;;;;;;;5025191;28;20042;-79
2023/03/15 09:40:52;;;;;;;13.02;2.20;;;;;;;;;;5021854;28;20050;-78
2023/03/15 09:43:34;;;;;;;7.22;1.75;;;;;;;;;;5019191;28;20165;-78
2023/03/15 09:46:19;;;;;;;12.13;2.17;;;;;;;;;;5040233;28;20045;-78
2023/03/15 09:48:53;;;;;;;9.05;2.38;;;;;;;;;;5033041;28;20045;-78
2023/03/15 09:51:25;;;;;;;12.15;2.33;;;;;;;;;;5041924;28;20053;-77
2023/03/15 09:53:59;;;;;;;11.70;2.20;;;;;;;;;;5027752;28;20152;-79
2023/03/15 09:56:27;;;;;;;9.75;2.20;;;;;;;;;;5021181;28;20068;-77
2023/03/15 09:58:56;;;;;;;10.40;2.17;;;;;;;;;;5019965;28;20098;-78
2023/03/15 10:01:42;;;;;;;11.13;2.38;;;;;;;;;;5055451;28;20110;-79
2023/03/15 10:04:18;;;;;;;10.00;2.17;;;;;;;;;;5019026;28;20097;-78
2023/03/15 10:06:50;;;;;;;10.38;2.13;;;;;;;;;;5019919;28;20057;-80
2023/03/15 10:09:19;;;;;;;10.25;2.08;;;;;;;;;;5052008;28;20054;-82
2023/03/15 10:12:00;;;;;;;8.02;2.20;;;;;;;;;;5019681;28;20053;-79
2023/03/15 10:14:38;;;;;;;8.07;2.28;;;;;;;;;;5022555;28;20054;-79
2023/03/15 10:17:12;;;;;;;10.38;2.58;;;;;;;;;;5021198;28;20046;-78
2023/03/15 10:19:49;;;;;;;10.32;2.20;;;;;;;;;;5052003;28;20137;-80
2023/03/15 10:22:47;;;;;;;14.18;2.60;;;;;;;;;;5050234;28;20056;-78
2023/03/15 10:25:22;;;;;;;6.45;2.20;;;;;;;;;;5012234;28;20131;-80
2023/03/15 10:27:57;;;;;;;7.43;1.70;;;;;;;;;;5049287;28;20647;-81
2023/03/15 10:30:25;;;;;;;9.07;2.53;;;;;;;;;;5020071;28;20055;-77
2023/03/15 10:33:00;;;;;;;7.35;1.90;;;;;;;;;;5058638;28;20510;-79
2023/03/15 10:35:28;;;;;;;;;;;;;;;;;;5034395;28;20486;-79
2023/03/15 10:37:55;;;;;;;8.85;1.95;;;;;;;;;;5044969;28;19928;-81
2023/03/15 10:40:38;;;;;;;7.72;2.20;;;;;;;;;;5043636;28;20045;-81
2023/03/15 10:43:11;;;;;;;8.35;2.13;;;;;;;;;;5042641;28;20053;-78
2023/03/15 10:45:38;;;;;;;12.75;2.70;;;;;;;;;;5043242;28;20053;-79
2023/03/15 10:48:06;;;;;;;8.55;2.50;;;;;;;;;;5043473;28;20049;-80
2023/03/15 10:50:36;;;;;;;11.00;2.22;;;;;;;;;;5046118;28;20050;-80
2023/03/15 10:53:09;;;;;;;8.32;2.33;;;;;;;;;;5040691;28;20101;-79
2023/03/15 10:55:43;;;;;;;8.95;2.38;;;;;;;;;;5037196;28;20105;-81
2023/03/15 10:58:27;;;;;;;9.52;2.42;;;;;;;;;;5039202;28;20045;-80
2023/03/15 11:00:59;;;;;;;5.13;1.95;;;;;;;;;;5029330;28;20099;-79
2023/03/15 11:03:26;;;;;;;5.35;1.70;;;;;;;;;;5021194;28;20046;-79
2023/03/15 11:05:55;;;;;;;5.32;1.88;;;;;;;;;;5027576;28;20033;-79
2023/03/15 11:08:23;;;;;;;8.40;2.00;;;;;;;;;;5021561;28;20054;-78
2023/03/15 11:10:57;;;;;;;7.53;1.80;;;;;;;;;;5014677;28;20044;-78
2023/03/15 11:13:27;;;;;;;6.07;2.15;;;;;;;;;;5013485;28;20041;-78
2023/03/15 11:15:54;;;;;;;7.50;1.92;;;;;;;;;;5019178;28;20041;-79
2023/03/15 11:18:29;;;;;;;6.95;2.30;;;;;;;;;;5016676;28;20044;-78
2023/03/15 11:20:56;;;;;;;12.43;2.53;;;;;;;;;;5015671;28;20113;-78
2023/03/15 11:23:26;;;;;;;5.90;1.73;;;;;;;;;;5041021;28;20053;-78
2023/03/15 11:25:53;;;;;;;7.43;1.70;;;;;;;;;;5029497;28;20041;-79
2023/03/15 11:28:22;;;;;;;2.88;1.70;;;;;;;;;;5039110;28;20041;-79
2023/03/15 11:30:52;;;;;;;4.25;1.85;;;;;;;;;;5074955;28;20053;-81
2023/03/15 11:33:40;;;;;;;7.22;1.80;;;;;;;;;;5060273;28;20045;-78
2023/03/15 11:36:10;;;;;;;3.95;2.08;;;;;;;;;;5023253;28;20037;-77
2023/03/15 11:38:46;;;;;;;8.98;2.17;;;;;;;;;;5033953;28;20141;-78
2023/03/15 11:41:19;;;;;;;5.95;1.73;;;;;;;;;;5008579;28;20046;-78
2023/03/15 11:43:55;;;;;;;5.80;1.50;;;;;;;;;;4999321;28;20042;-79
2023/03/15 11:46:25;;;;;;;4.20;1.60;;;;;;;;;;4986055;28;20102;-78
2023/03/15 11:48:56;;;;;;;7.03;1.73;;;;;;;;;;5019667;28;20057;-79
2023/03/15 11:51:23;;;;;;;5.75;1.60;;;;;;;;;;5011881;28;20049;-79
2023/03/15 11:53:56;;;;;;;3.47;1.20;;;;;;;;;;5018679;28;20529;-79
2023/03/15 11:56:25;;;;;;;4.93;1.52;;;;;;;;;;5025762;28;20047;-78
2023/03/15 11:59:00;;;;;;;7.63;1.50;;;;;;;;;;5018707;28;20112;-76
2023/03/15 12:01:27;;;;;;;4.40;1.30;;;;;;;;;;5050807;28;20056;-78
2023/03/15 12:04:13;;;;;;;2.25;1.25;;;;;;;;;;5056189;28;20045;-79
2023/03/15 12:06:42;;;;;;;3.65;1.10;;;;;;;;;;5019558;28;20049;-79
2023/03/15 12:09:27;;;;;;;3.83;1.23;;;;;;;;;;5018848;28;20473;-80
2023/03/15 12:11:56;;;;;;;2.80;1.20;;;;;;;;;;5015480;28;20056;-79
2023/03/15 12:14:30;;;;;;;4.90;1.30;;;;;;;;;;5009910;28;20045;-77
2023/03/15 12:17:15;;;;;;;4.03;0.80;;;;;;;;;;5008877;28;20057;-78
2023/03/15 12:19:42;;;;;;;3.83;1.10;;;;;;;;;;5015125;28;20077;-79
2023/03/15 12:22:14;;;;;;;5.30;1.52;;;;;;;;;;5014427;28;20041;-78
2023/03/15 12:24:43;;;;;;;3.20;1.58;;;;;;;;;;5012227;28;20052;-79
2023/03/15 12:27:12;;;;;;;3.10;0.88;;;;;;;;;;5011021;28;20046;-78
2023/03/15 12:29:39;;;;;;;6.07;1.35;;;;;;;;;;5008518;28;20045;-78
2023/03/15 12:32:16;;;;;;;3.53;1.50;;;;;;;;;;5005831;28;20052;-78
2023/03/15 12:34:42;;;;;;;4.85;1.75;;;;;;;;;;5005484;28;20121;-79
2023/03/15 12:37:29;;;;;;;3.80;1.67;;;;;;;;;;5004967;28;20552;-79
2023/03/15 12:40:01;;;;;;;4.55;1.63;;;;;;;;;;5009103;28;20042;-79
2023/03/15 12:42:30;;;;;;;4.60;1.45;;;;;;;;;;5009112;28;20056;-78
2023/03/15 12:45:15;;;;;;;5.72;1.45;;;;;;;;;;5009407;28;20592;-80
2023/03/15 12:47:48;;;;;;;4.43;1.50;;;;;;;;;;5024508;28;20042;-78
2023/03/15 12:50:33;;;;;;;4.45;1.60;;;;;;;;;;5027709;28;20668;-79
2023/03/15 12:53:01;;;;;;;5.53;2.30;;;;;;;;;;5031727;28;20134;-80
2023/03/15 12:55:33;;;;;;;4.63;1.88;;;;;;;;;;5031370;28;20058;-82
2023/03/15 12:58:01;;;;;;;5.75;2.08;;;;;;;;;;5054610;28;20054;-79
2023/03/15 13:00:29;;;;;;;6.30;2.70;;;;;;;;;;5036449;28;20041;-79
2023/03/15 13:02:55;;;;;;;7.07;2.75;;;;;;;;;;5053165;28;20110;-79
2023/03/15 13:05:42;;;;;;;6.95;2.85;;;;;;;;;;5056472;28;20128;-80
2023/03/15 13:08:15;;;;;;;5.45;2.92;;;;;;;;;;5060890;28;20048;-80
2023/03/15 13:11:01;;;;;;;6.55;3.53;;;;;;;;;;5042257;28;20060;-79
2023/03/15 13:13:41;;;;;;;5.80;3.38;;;;;;;;;;5020327;28;20425;-79
2023/03/15 13:16:16;;;;;;;6.38;3.38;;;;;;;;;;5018290;28;20053;-79
2023/03/15 13:18:51;;;;;;;7.53;2.85;;;;;;;;;;5015988;28;20568;-79
2023/03/15 13:21:31;;;;;;;9.80;2.58;;;;;;;;;;5016851;28;20046;-80
2023/03/15 13:23:59;;;;;;;5.85;2.72;;;;;;;;;;5018044;28;20087;-80
2023/03/15 13:26:38;;;;;;;6.47;3.03;;;;;;;;;;5023157;28;20072;-81
2023/03/15 13:29:10;;;;;;;4.68;2.25;;;;;;;;;;5022013;28;20045;-80
2023/03/15 13:31:38;;;;;;;4.13;2.58;;;;;;;;;;5018103;28;20045;-78
2023/03/15 13:34:12;;;;;;;4.80;2.53;;;;;;;;;;5031384;28;20053;-79
2023/03/15 13:36:46;;;;;;;3.17;2.33;;;;;;;;;;5035493;28;20045;-80
2023/03/15 13:39:24;;;;;;;3.53;2.38;;;;;;;;;;5042113;28;20050;-79
2023/03/15 13:41:58;;;;;;;6.68;2.75;;;;;;;;;;5031787;28;20045;-81
2023/03/15 13:44:27;;;;;;;7.45;3.33;;;;;;;;;;5022348;28;20040;-80
2023/03/15 13:46:55;;;;;;;5.53;2.40;;;;;;;;;;5035795;28;20041;-78
2023/03/15 13:49:22;;;;;;;6.78;1.77;;;;;;;;;;5023869;28;20049;-80
2023/03/15 13:51:49;;;;;;;3.95;1.45;;;;;;;;;;5038050;28;20111;-79
2023/03/15 13:54:34;;;;;;;4.70;1.80;;;;;;;;;;5020802;28;20049;-82
2023/03/15 13:57:04;;;;;;;6.78;2.00;;;;;;;;;;5036560;28;20163;-81
2023/03/15 13:59:37;;;;;;;3.58;1.70;;;;;;;;;;5037540;28;20041;-80
2023/03/15 14:02:06;;;;;;;4.18;1.85;;;;;;;;;;5038093;28;20053;-79
2023/03/15 14:04:35;;;;;;;3.08;1.23;;;;;;;;;;5029967;28;20049;-79
2023/03/15 14:07:14;;;;;;;7.15;1.58;;;;;;;;;;5026241;28;20118;-79
2023/03/15 14:09:41;;;;;;;5.40;1.52;;;;;;;;;;5020618;28;20156;-80
2023/03/15 14:12:16;;;;;;;6.22;1.50;;;;;;;;;;5030121;28;20037;-81
2023/03/15 14:14:50;;;;;;;3.50;1.83;;;;;;;;;;5036417;28;20056;-81
2023/03/15 14:17:23;;;;;;;4.82;1.80;;;;;;;;;;5026131;28;20053;-80
2023/03/15 14:19:52;;;;;;;4.00;2.10;;;;;;;;;;5021932;28;20053;-78
2023/03/15 14:22:18;;;;;;;8.32;2.13;;;;;;;;;;5022296;28;20037;-80
2023/03/15 14:24:46;;;;;;;6.53;2.35;;;;;;;;;;5021015;28;20050;-80
2023/03/15 14:27:18;;;;;;;7.72;2.63;;;;;;;;;;5020276;28;20054;-81
2023/03/15 14:29:48;;;;;;;5.38;2.50;;;;;;;;;;5003160;28;20049;-82
2023/03/15 14:32:34;;;;;;;6.35;1.90;;;;;;;;;;5021184;28;20050;-78
2023/03/15 14:35:01;;;;;;;6.88;1.80;;;;;;;;;;5021633;28;20050;-79
2023/03/15 14:37:38;;;;;;;4.78;1.67;;;;;;;;;;5020120;28;20042;-80
2023/03/15 14:40:14;;;;;;;7.03;2.20;;;;;;;;;;5019809;28;20081;-79
2023/03/15 14:42:44;;;;;;;10.75;2.45;;;;;;;;;;5020478;28;20129;-81
2023/03/15 14:45:12;;;;;;;4.25;2.00;;;;;;;;;;5020872;28;20541;-81
2023/03/15 14:47:43;;;;;;;4.10;1.73;;;;;;;;;;5021280;28;20050;-80
2023/03/15 14:50:23;;;;;;;3.70;1.95;;;;;;;;;;5026375;28;20054;-79
2023/03/15 14:52:50;;;;;;;5.45;1.58;;;;;;;;;;5030116;28;20074;-80
2023/03/15 14:55:20;;;;;;;4.65;1.70;;;;;;;;;;5019398;28;20073;-80
2023/03/15 14:57:49;;;;;;;4.95;1.98;;;;;;;;;;5018972;28;20056;-81
2023/03/15 15:00:19;;;;;;;5.70;2.00;;;;;;;;;;5001435;28;20054;-80
2023/03/15 15:02:51;;;;;;;5.30;2.00;;;;;;;;;;5009876;28;20044;-79